createdAt,value
2017-12-12T00:00:14.232Z,0
2017-12-12T00:01:14.215Z,0
2017-12-12T00:02:14.201Z,0
2017-12-12T00:03:13.908Z,0
2017-12-12T00:04:14.180Z,0
2017-12-12T00:05:14.147Z,0
2017-12-12T00:06:14.138Z,0
2017-12-12T00:07:14.133Z,0
2017-12-12T00:08:14.373Z,0
2017-12-12T00:09:14.373Z,0
2017-12-12T00:10:15.561Z,0
2017-12-12T00:11:14.330Z,0
2017-12-12T00:12:13.772Z,0
2017-12-12T00:13:13.757Z,0
2017-12-12T00:14:14.291Z,0
2017-12-12T00:15:14.270Z,0
2017-12-12T00:16:13.982Z,0
2017-12-12T00:17:14.240Z,0
2017-12-12T00:18:13.957Z,0
2017-12-12T00:19:14.210Z,0
2017-12-12T00:20:13.657Z,0
2017-12-12T00:21:14.232Z,0
2017-12-12T00:22:13.916Z,0
2017-12-12T00:23:13.874Z,0
2017-12-12T00:24:14.200Z,0
2017-12-12T00:25:14.391Z,0
2017-12-12T00:26:14.113Z,0
2017-12-12T00:27:14.087Z,0
2017-12-12T00:28:13.532Z,0
2017-12-12T00:29:13.790Z,0
2017-12-12T00:30:14.078Z,0
2017-12-12T00:31:13.486Z,0
2017-12-12T00:32:13.468Z,0
2017-12-12T00:33:13.999Z,0
2017-12-12T00:34:13.438Z,0
2017-12-12T00:35:13.699Z,0
2017-12-12T00:36:13.960Z,0
2017-12-12T00:37:13.664Z,0
2017-12-12T00:38:13.384Z,0
2017-12-12T00:39:13.362Z,0
2017-12-12T00:40:13.889Z,0
2017-12-12T00:41:13.893Z,0
2017-12-12T00:42:13.592Z,0
2017-12-12T00:43:13.856Z,0
2017-12-12T00:44:13.830Z,0
2017-12-12T00:45:13.551Z,0
2017-12-12T00:46:13.800Z,0
2017-12-12T00:47:13.251Z,0
2017-12-12T00:48:13.501Z,0
2017-12-12T00:49:13.773Z,0
2017-12-12T00:50:13.196Z,0
2017-12-12T00:51:13.468Z,0
2017-12-12T00:52:13.167Z,0
2017-12-12T00:53:13.424Z,0
2017-12-12T00:54:13.418Z,0
2017-12-12T00:55:13.120Z,0
2017-12-12T00:56:13.375Z,0
2017-12-12T00:57:13.374Z,0
2017-12-12T00:58:13.354Z,0
2017-12-12T00:59:13.341Z,0
2017-12-12T01:00:13.057Z,0
2017-12-12T01:01:13.303Z,0
2017-12-12T01:02:13.287Z,0
2017-12-12T01:03:13.275Z,0
2017-12-12T01:04:13.007Z,0
2017-12-12T01:05:13.525Z,0
2017-12-12T01:06:13.228Z,0
2017-12-12T01:07:13.484Z,0
2017-12-12T01:08:13.487Z,0
2017-12-12T01:09:13.188Z,0
2017-12-12T01:10:13.182Z,0
2017-12-12T01:11:13.422Z,0
2017-12-12T01:12:13.144Z,0
2017-12-12T01:13:12.851Z,0
2017-12-12T01:14:13.117Z,0
2017-12-12T01:15:13.632Z,0
2017-12-12T01:16:12.807Z,0
2017-12-12T01:17:13.347Z,0
2017-12-12T01:18:13.045Z,0
2017-12-12T01:19:13.030Z,0
2017-12-12T01:20:12.746Z,0
2017-12-12T01:21:12.727Z,0
2017-12-12T01:22:13.276Z,0
2017-12-12T01:23:12.976Z,0
2017-12-12T01:24:12.700Z,0
2017-12-12T01:25:13.225Z,0
2017-12-12T01:26:13.197Z,0
2017-12-12T01:27:13.200Z,0
2017-12-12T01:28:12.954Z,0
2017-12-12T01:29:12.891Z,0
2017-12-12T01:30:13.159Z,0
2017-12-12T01:31:12.578Z,0
2017-12-12T01:32:12.840Z,0
2017-12-12T01:33:13.151Z,0
2017-12-12T01:34:12.803Z,0
2017-12-12T01:35:13.063Z,0
2017-12-12T01:36:13.044Z,0
2017-12-12T01:37:13.302Z,0
2017-12-12T01:38:12.476Z,0
2017-12-12T01:39:12.762Z,0
2017-12-12T01:40:13.262Z,0
2017-12-12T01:41:12.445Z,0
2017-12-12T01:42:12.959Z,0
2017-12-12T01:43:12.673Z,0
2017-12-12T01:44:12.944Z,0
2017-12-12T01:45:12.639Z,0
2017-12-12T01:46:12.635Z,0
2017-12-12T01:47:12.333Z,0
2017-12-12T01:48:12.878Z,0
2017-12-12T01:49:12.595Z,0
2017-12-12T01:50:12.834Z,0
2017-12-12T01:51:12.601Z,0
2017-12-12T01:52:12.260Z,0
2017-12-12T01:53:12.531Z,0
2017-12-12T01:54:12.228Z,0
2017-12-12T01:55:12.482Z,0
2017-12-12T01:56:13.019Z,0
2017-12-12T01:57:12.200Z,0
2017-12-12T01:58:13.007Z,0
2017-12-12T01:59:12.721Z,0
2017-12-12T02:00:12.988Z,0
2017-12-12T02:01:12.663Z,0
2017-12-12T02:02:12.379Z,0
2017-12-12T02:03:12.653Z,0
2017-12-12T02:04:12.348Z,0
2017-12-12T02:05:12.892Z,0
2017-12-12T02:06:12.318Z,0
2017-12-12T02:07:12.309Z,0
2017-12-12T02:08:12.860Z,0
2017-12-12T02:09:12.274Z,0
2017-12-12T02:10:12.534Z,0
2017-12-12T02:11:12.243Z,0
2017-12-12T02:12:12.228Z,0
2017-12-12T02:13:12.221Z,0
2017-12-12T02:14:12.201Z,0
2017-12-12T02:15:12.725Z,0
2017-12-12T02:16:12.718Z,0
2017-12-12T02:17:11.880Z,0
2017-12-12T02:18:12.413Z,0
2017-12-12T02:19:12.662Z,0
2017-12-12T02:20:12.107Z,0
2017-12-12T02:21:12.100Z,0
2017-12-12T02:22:12.695Z,0
2017-12-12T02:23:12.100Z,0
2017-12-12T02:24:12.322Z,0
2017-12-12T02:25:12.316Z,0
2017-12-12T02:26:12.314Z,0
2017-12-12T02:27:12.005Z,0
2017-12-12T02:28:11.980Z,0
2017-12-12T02:29:11.714Z,0
2017-12-12T02:30:12.499Z,0
2017-12-12T02:31:11.664Z,0
2017-12-12T02:32:12.204Z,0
2017-12-12T02:33:11.907Z,0
2017-12-12T02:34:11.635Z,0
2017-12-12T02:35:11.876Z,0
2017-12-12T02:36:11.592Z,0
2017-12-12T02:37:12.139Z,0
2017-12-12T02:38:11.833Z,0
2017-12-12T02:39:11.819Z,0
2017-12-12T02:40:11.804Z,0
2017-12-12T02:41:11.786Z,0
2017-12-12T02:42:11.795Z,0
2017-12-12T02:43:11.756Z,0
2017-12-12T02:44:11.759Z,0
2017-12-12T02:45:12.022Z,0
2017-12-12T02:46:11.504Z,0
2017-12-12T02:47:12.070Z,0
2017-12-12T02:48:11.680Z,0
2017-12-12T02:49:11.947Z,0
2017-12-12T02:50:11.379Z,0
2017-12-12T02:51:11.946Z,0
2017-12-12T02:52:11.366Z,0
2017-12-12T02:53:11.871Z,0
2017-12-12T02:54:11.585Z,0
2017-12-12T02:55:11.579Z,0
2017-12-12T02:56:11.284Z,0
2017-12-12T02:57:11.546Z,0
2017-12-12T02:58:11.526Z,0
2017-12-12T02:59:11.778Z,0
2017-12-12T03:00:11.506Z,0
2017-12-12T03:01:11.485Z,0
2017-12-12T03:02:11.469Z,0
2017-12-12T03:03:11.471Z,0
2017-12-12T03:04:11.159Z,0
2017-12-12T03:05:11.144Z,0
2017-12-12T03:06:11.589Z,0
2017-12-12T03:07:11.657Z,0
2017-12-12T03:08:11.367Z,0
2017-12-12T03:09:11.932Z,0
2017-12-12T03:10:11.354Z,0
2017-12-12T03:11:11.051Z,0
2017-12-12T03:12:11.036Z,0
2017-12-12T03:13:11.022Z,0
2017-12-12T03:14:11.548Z,0
2017-12-12T03:15:11.001Z,0
2017-12-12T03:16:11.514Z,0
2017-12-12T03:17:11.521Z,0
2017-12-12T03:18:11.214Z,0
2017-12-12T03:19:11.220Z,0
2017-12-12T03:20:11.182Z,0
2017-12-12T03:21:11.487Z,0
2017-12-12T03:22:11.433Z,0
2017-12-12T03:23:10.872Z,0
2017-12-12T03:24:11.126Z,0
2017-12-12T03:25:10.839Z,0
2017-12-12T03:26:11.106Z,0
2017-12-12T03:27:11.082Z,0
2017-12-12T03:28:11.401Z,0
2017-12-12T03:29:11.046Z,0
2017-12-12T03:30:10.769Z,0
2017-12-12T03:31:11.036Z,0
2017-12-12T03:32:11.284Z,0
2017-12-12T03:33:11.005Z,0
2017-12-12T03:34:11.050Z,0
2017-12-12T03:35:10.683Z,0
2017-12-12T03:36:10.949Z,0
2017-12-12T03:37:10.921Z,0
2017-12-12T03:38:10.909Z,0
2017-12-12T03:39:11.176Z,0
2017-12-12T03:40:10.621Z,0
2017-12-12T03:41:10.878Z,0
2017-12-12T03:42:10.846Z,0
2017-12-12T03:43:10.838Z,0
2017-12-12T03:44:10.565Z,0
2017-12-12T03:45:10.798Z,0
2017-12-12T03:46:11.056Z,0
2017-12-12T03:47:11.040Z,0
2017-12-12T03:48:10.776Z,0
2017-12-12T03:49:11.029Z,0
2017-12-12T03:50:10.722Z,0
2017-12-12T03:51:10.435Z,0
2017-12-12T03:52:10.693Z,0
2017-12-12T03:53:10.675Z,0
2017-12-12T03:54:10.936Z,0
2017-12-12T03:55:10.920Z,0
2017-12-12T03:56:10.628Z,0
2017-12-12T03:57:10.908Z,0
2017-12-12T03:58:10.614Z,0
2017-12-12T03:59:10.311Z,0
2017-12-12T04:00:10.295Z,0
2017-12-12T04:01:10.549Z,0
2017-12-12T04:02:10.533Z,0
2017-12-12T04:03:10.812Z,0
2017-12-12T04:04:10.776Z,0
2017-12-12T04:05:10.491Z,0
2017-12-12T04:06:10.201Z,0
2017-12-12T04:07:10.211Z,0
2017-12-12T04:08:10.442Z,0
2017-12-12T04:09:10.699Z,0
2017-12-12T04:10:10.414Z,0
2017-12-12T04:11:10.403Z,0
2017-12-12T04:12:10.393Z,0
2017-12-12T04:13:10.363Z,0
2017-12-12T04:14:10.078Z,0
2017-12-12T04:15:10.060Z,0
2017-12-12T04:16:10.617Z,0
2017-12-12T04:17:10.590Z,0
2017-12-12T04:18:10.285Z,0
2017-12-12T04:19:10.025Z,0
2017-12-12T04:20:10.256Z,0
2017-12-12T04:21:10.516Z,0
2017-12-12T04:22:09.952Z,0
2017-12-12T04:23:09.939Z,0
2017-12-12T04:24:10.465Z,0
2017-12-12T04:25:09.918Z,0
2017-12-12T04:26:10.433Z,0
2017-12-12T04:27:10.172Z,0
2017-12-12T04:28:09.859Z,0
2017-12-12T04:29:10.389Z,0
2017-12-12T04:30:10.584Z,0
2017-12-12T04:31:09.811Z,0
2017-12-12T04:32:10.069Z,0
2017-12-12T04:33:10.059Z,0
2017-12-12T04:34:10.315Z,0
2017-12-12T04:35:09.771Z,0
2017-12-12T04:36:09.746Z,0
2017-12-12T04:37:09.993Z,0
2017-12-12T04:38:09.979Z,0
2017-12-12T04:39:09.689Z,0
2017-12-12T04:40:10.237Z,0
2017-12-12T04:41:09.942Z,0
2017-12-12T04:42:09.921Z,0
2017-12-12T04:43:09.921Z,0
2017-12-12T04:44:09.893Z,0
2017-12-12T04:45:10.139Z,0
2017-12-12T04:46:09.649Z,0
2017-12-12T04:47:09.834Z,0
2017-12-12T04:48:10.114Z,0
2017-12-12T04:49:09.807Z,0
2017-12-12T04:50:09.789Z,0
2017-12-12T04:51:09.776Z,0
2017-12-12T04:52:09.759Z,0
2017-12-12T04:53:09.473Z,0
2017-12-12T04:54:10.281Z,0
2017-12-12T04:55:09.992Z,0
2017-12-12T04:56:09.971Z,0
2017-12-12T04:57:09.681Z,0
2017-12-12T04:58:09.401Z,0
2017-12-12T04:59:09.664Z,0
2017-12-12T05:00:09.638Z,0
2017-12-12T05:01:10.160Z,0
2017-12-12T05:02:10.198Z,0
2017-12-12T05:03:09.864Z,0
2017-12-12T05:04:09.577Z,0
2017-12-12T05:05:09.557Z,0
2017-12-12T05:06:09.271Z,0
2017-12-12T05:07:09.800Z,0
2017-12-12T05:08:09.519Z,0
2017-12-12T05:09:09.505Z,0
2017-12-12T05:10:09.219Z,0
2017-12-12T05:11:09.202Z,0
2017-12-12T05:12:09.446Z,0
2017-12-12T05:13:09.454Z,0
2017-12-12T05:14:09.425Z,0
2017-12-12T05:15:09.691Z,0
2017-12-12T05:16:09.133Z,0
2017-12-12T05:17:09.369Z,0
2017-12-12T05:18:09.363Z,0
2017-12-12T05:19:09.624Z,0
2017-12-12T05:20:09.323Z,0
2017-12-12T05:21:09.578Z,0
2017-12-12T05:22:09.565Z,0
2017-12-12T05:23:09.006Z,0
2017-12-12T05:24:09.541Z,0
2017-12-12T05:25:09.260Z,0
2017-12-12T05:26:09.260Z,0
2017-12-12T05:27:08.942Z,0
2017-12-12T05:28:08.928Z,0
2017-12-12T05:29:09.452Z,0
2017-12-12T05:30:09.169Z,0
2017-12-12T05:31:08.888Z,0
2017-12-12T05:32:09.140Z,0
2017-12-12T05:33:09.131Z,0
2017-12-12T05:34:08.832Z,0
2017-12-12T05:35:09.362Z,0
2017-12-12T05:36:09.074Z,0
2017-12-12T05:37:09.324Z,0
2017-12-12T05:38:09.070Z,0
2017-12-12T05:39:09.023Z,0
2017-12-12T05:40:09.010Z,0
2017-12-12T05:41:08.720Z,0
2017-12-12T05:42:08.714Z,0
2017-12-12T05:43:09.234Z,0
2017-12-12T05:44:08.947Z,0
2017-12-12T05:45:09.204Z,0
2017-12-12T05:46:09.461Z,0
2017-12-12T05:47:08.628Z,0
2017-12-12T05:48:09.242Z,0
2017-12-12T05:49:08.866Z,0
2017-12-12T05:50:09.125Z,0
2017-12-12T05:51:08.841Z,0
2017-12-12T05:52:08.553Z,0
2017-12-12T05:53:08.804Z,0
2017-12-12T05:54:08.517Z,0
2017-12-12T05:55:08.501Z,0
2017-12-12T05:56:08.780Z,0
2017-12-12T05:57:08.471Z,0
2017-12-12T05:58:08.727Z,0
2017-12-12T05:59:08.729Z,0
2017-12-12T06:00:08.972Z,0
2017-12-12T06:01:08.955Z,0
2017-12-12T06:02:08.932Z,0
2017-12-12T06:03:08.662Z,0
2017-12-12T06:04:08.629Z,0
2017-12-12T06:05:08.618Z,0
2017-12-12T06:06:09.148Z,0
2017-12-12T06:07:08.582Z,0
2017-12-12T06:08:08.572Z,0
2017-12-12T06:09:08.552Z,0
2017-12-12T06:10:08.264Z,0
2017-12-12T06:11:08.519Z,0
2017-12-12T06:12:08.501Z,0
2017-12-12T06:13:08.486Z,0
2017-12-12T06:14:08.199Z,0
2017-12-12T06:15:09.002Z,0
2017-12-12T06:16:08.438Z,0
2017-12-12T06:17:08.493Z,0
2017-12-12T06:18:08.678Z,0
2017-12-12T06:19:08.392Z,0
2017-12-12T06:20:08.397Z,0
2017-12-12T06:21:08.368Z,0
2017-12-12T06:22:08.425Z,0
2017-12-12T06:23:08.608Z,0
2017-12-12T06:24:08.312Z,0
2017-12-12T06:25:08.561Z,0
2017-12-12T06:26:08.570Z,0
2017-12-12T06:27:08.808Z,0
2017-12-12T06:28:08.260Z,0
2017-12-12T06:29:08.519Z,0
2017-12-12T06:30:07.948Z,0
2017-12-12T06:31:08.195Z,0
2017-12-12T06:32:08.200Z,0
2017-12-12T06:33:07.899Z,0
2017-12-12T06:34:08.146Z,0
2017-12-12T06:35:08.148Z,0
2017-12-12T06:36:08.115Z,0
2017-12-12T06:37:08.095Z,0
2017-12-12T06:38:07.806Z,0
2017-12-12T06:39:08.066Z,0
2017-12-12T06:40:08.339Z,0
2017-12-12T06:41:08.036Z,4
2017-12-12T06:42:08.013Z,4
2017-12-12T06:43:07.992Z,4
2017-12-12T06:44:07.715Z,4
2017-12-12T06:45:07.692Z,4
2017-12-12T06:46:08.522Z,4
2017-12-12T06:47:08.205Z,4
2017-12-12T06:48:08.181Z,8
2017-12-12T06:49:07.894Z,12
2017-12-12T06:50:08.428Z,12
2017-12-12T06:51:07.590Z,12
2017-12-12T06:52:07.843Z,20
2017-12-12T06:53:08.113Z,16
2017-12-12T06:54:07.814Z,24
2017-12-12T06:55:08.070Z,24
2017-12-12T06:56:07.523Z,28
2017-12-12T06:57:08.032Z,40
2017-12-12T06:58:07.471Z,36
2017-12-12T06:59:07.452Z,64
2017-12-12T07:00:07.708Z,60
2017-12-12T07:01:07.690Z,60
2017-12-12T07:02:07.696Z,44
2017-12-12T07:03:07.956Z,36
2017-12-12T07:04:07.440Z,32
2017-12-12T07:05:07.913Z,32
2017-12-12T07:06:07.609Z,32
2017-12-12T07:07:07.867Z,32
2017-12-12T07:08:07.858Z,36
2017-12-12T07:09:07.568Z,36
2017-12-12T07:10:07.542Z,40
2017-12-12T07:11:07.813Z,36
2017-12-12T07:12:07.514Z,36
2017-12-12T07:13:07.757Z,40
2017-12-12T07:14:11.333Z,40
2017-12-12T07:15:07.460Z,40
2017-12-12T07:16:07.435Z,40
2017-12-12T07:17:07.418Z,44
2017-12-12T07:18:07.400Z,44
2017-12-12T07:19:07.120Z,44
2017-12-12T07:20:07.956Z,44
2017-12-12T07:21:07.076Z,40
2017-12-12T07:22:07.332Z,36
2017-12-12T07:23:07.312Z,36
2017-12-12T07:24:07.307Z,36
2017-12-12T07:25:07.550Z,48
2017-12-12T07:26:06.991Z,68
2017-12-12T07:27:07.518Z,60
2017-12-12T07:28:07.515Z,68
2017-12-12T07:29:06.938Z,48
2017-12-12T07:30:07.484Z,80
2017-12-12T07:31:07.453Z,92
2017-12-12T07:32:07.744Z,80
2017-12-12T07:33:07.144Z,84
2017-12-12T07:34:07.398Z,140
2017-12-12T07:35:07.380Z,128
2017-12-12T07:36:07.363Z,232
2017-12-12T07:37:07.359Z,332
2017-12-12T07:38:07.063Z,152
2017-12-12T07:39:07.037Z,140
2017-12-12T07:40:07.077Z,140
2017-12-12T07:41:07.003Z,312
2017-12-12T07:42:07.254Z,340
2017-12-12T07:43:06.990Z,260
2017-12-12T07:44:06.955Z,324
2017-12-12T07:45:06.936Z,196
2017-12-12T07:46:06.665Z,188
2017-12-12T07:47:06.905Z,436
2017-12-12T07:48:07.161Z,612
2017-12-12T07:49:07.411Z,492
2017-12-12T07:50:06.574Z,516
2017-12-12T07:51:06.830Z,396
2017-12-12T07:52:06.821Z,588
2017-12-12T07:53:06.814Z,588
2017-12-12T07:54:06.777Z,684
2017-12-12T07:55:06.769Z,672
2017-12-12T07:56:07.013Z,620
2017-12-12T07:57:07.278Z,528
2017-12-12T07:58:06.709Z,568
2017-12-12T07:59:06.996Z,484
2017-12-12T08:00:06.971Z,452
2017-12-12T08:01:06.927Z,608
2017-12-12T08:02:06.367Z,528
2017-12-12T08:03:06.363Z,444
2017-12-12T08:04:06.872Z,424
2017-12-12T08:05:06.588Z,456
2017-12-12T08:06:06.575Z,448
2017-12-12T08:07:06.552Z,388
2017-12-12T08:08:06.288Z,396
2017-12-12T08:09:06.518Z,368
2017-12-12T08:10:06.498Z,376
2017-12-12T08:11:06.490Z,344
2017-12-12T08:12:06.467Z,332
2017-12-12T08:13:06.175Z,404
2017-12-12T08:14:07.020Z,332
2017-12-12T08:15:07.049Z,456
2017-12-12T08:16:06.393Z,520
2017-12-12T08:17:06.377Z,504
2017-12-12T08:18:06.358Z,484
2017-12-12T08:19:06.341Z,524
2017-12-12T08:20:06.593Z,556
2017-12-12T08:21:06.310Z,632
2017-12-12T08:22:06.287Z,796
2017-12-12T08:23:06.543Z,716
2017-12-12T08:24:06.525Z,652
2017-12-12T08:25:06.232Z,708
2017-12-12T08:26:06.220Z,572
2017-12-12T08:27:06.510Z,556
2017-12-12T08:28:06.191Z,528
2017-12-12T08:29:06.166Z,556
2017-12-12T08:30:06.714Z,596
2017-12-12T08:31:06.147Z,676
2017-12-12T08:32:06.384Z,716
2017-12-12T08:33:06.099Z,692
2017-12-12T08:34:06.101Z,540
2017-12-12T08:35:06.340Z,520
2017-12-12T08:36:06.062Z,584
2017-12-12T08:37:06.299Z,656
2017-12-12T08:38:06.007Z,568
2017-12-12T08:39:05.719Z,516
2017-12-12T08:40:05.996Z,572
2017-12-12T08:41:06.243Z,580
2017-12-12T08:42:06.208Z,652
2017-12-12T08:43:06.194Z,592
2017-12-12T08:44:06.171Z,476
2017-12-12T08:45:05.885Z,488
2017-12-12T08:46:06.141Z,592
2017-12-12T08:47:05.852Z,460
2017-12-12T08:48:06.107Z,556
2017-12-12T08:49:05.817Z,664
2017-12-12T08:50:05.798Z,604
2017-12-12T08:51:05.515Z,780
2017-12-12T08:52:05.492Z,892
2017-12-12T08:53:05.748Z,868
2017-12-12T08:54:06.272Z,832
2017-12-12T08:55:05.713Z,1004
2017-12-12T08:56:05.964Z,828
2017-12-12T08:57:05.679Z,916
2017-12-12T08:58:05.407Z,872
2017-12-12T08:59:05.640Z,1076
2017-12-12T09:00:05.898Z,1012
2017-12-12T09:01:05.892Z,1072
2017-12-12T09:02:05.859Z,1024
2017-12-12T09:03:05.841Z,1132
2017-12-12T09:04:05.553Z,1116
2017-12-12T09:05:05.811Z,1036
2017-12-12T09:06:05.523Z,1216
2017-12-12T09:07:05.773Z,1156
2017-12-12T09:08:05.493Z,1348
2017-12-12T09:09:05.195Z,1256
2017-12-12T09:10:05.724Z,1360
2017-12-12T09:11:05.160Z,1192
2017-12-12T09:12:05.141Z,1404
2017-12-12T09:13:05.127Z,1572
2017-12-12T09:14:05.382Z,1728
2017-12-12T09:15:05.636Z,1208
2017-12-12T09:16:05.342Z,1068
2017-12-12T09:17:05.329Z,1312
2017-12-12T09:18:05.589Z,1684
2017-12-12T09:19:05.021Z,1540
2017-12-12T09:20:05.545Z,1568
2017-12-12T09:21:05.257Z,1452
2017-12-12T09:22:05.512Z,1468
2017-12-12T09:23:05.524Z,1432
2017-12-12T09:24:05.474Z,1124
2017-12-12T09:25:05.220Z,1384
2017-12-12T09:26:05.444Z,1540
2017-12-12T09:27:05.149Z,1648
2017-12-12T09:28:05.407Z,1276
2017-12-12T09:29:04.847Z,1252
2017-12-12T09:30:04.852Z,968
2017-12-12T09:31:05.359Z,936
2017-12-12T09:32:05.337Z,988
2017-12-12T09:33:05.046Z,856
2017-12-12T09:34:05.032Z,1024
2017-12-12T09:35:05.032Z,920
2017-12-12T09:36:04.999Z,1264
2017-12-12T09:37:04.999Z,1164
2017-12-12T09:38:04.688Z,988
2017-12-12T09:39:04.943Z,1120
2017-12-12T09:40:05.478Z,1372
2017-12-12T09:41:04.911Z,1424
2017-12-12T09:42:05.161Z,1296
2017-12-12T09:43:04.601Z,1256
2017-12-12T09:44:05.408Z,1108
2017-12-12T09:45:04.841Z,1020
2017-12-12T09:46:04.824Z,1036
2017-12-12T09:47:04.534Z,1028
2017-12-12T09:48:05.057Z,1004
2017-12-12T09:49:05.325Z,1180
2017-12-12T09:50:05.041Z,1364
2017-12-12T09:51:04.742Z,1276
2017-12-12T09:52:04.989Z,1420
2017-12-12T09:53:04.709Z,1520
2017-12-12T09:54:04.436Z,1520
2017-12-12T09:55:05.219Z,1336
2017-12-12T09:56:04.923Z,1416
2017-12-12T09:57:04.909Z,1404
2017-12-12T09:58:04.614Z,1344
2017-12-12T09:59:04.874Z,1684
2017-12-12T10:00:04.586Z,1652
2017-12-12T10:01:04.575Z,1416
2017-12-12T10:02:04.544Z,1360
2017-12-12T10:03:04.798Z,1512
2017-12-12T10:04:04.783Z,1332
2017-12-12T10:05:04.494Z,1148
2017-12-12T10:06:04.217Z,1060
2017-12-12T10:07:04.769Z,1076
2017-12-12T10:08:04.447Z,960
2017-12-12T10:09:04.971Z,1040
2017-12-12T10:10:04.694Z,1024
2017-12-12T10:11:04.390Z,784
2017-12-12T10:12:04.665Z,784
2017-12-12T10:13:04.356Z,788
2017-12-12T10:14:04.608Z,1136
2017-12-12T10:15:04.594Z,968
2017-12-12T10:16:04.576Z,1188
2017-12-12T10:17:04.568Z,984
2017-12-12T10:18:03.997Z,1136
2017-12-12T10:19:04.802Z,1180
2017-12-12T10:20:03.962Z,984
2017-12-12T10:21:04.216Z,944
2017-12-12T10:22:03.924Z,828
2017-12-12T10:23:03.910Z,836
2017-12-12T10:24:04.449Z,840
2017-12-12T10:25:04.703Z,792
2017-12-12T10:26:07.330Z,760
2017-12-12T10:27:04.129Z,788
2017-12-12T10:28:04.374Z,892
2017-12-12T10:29:03.824Z,860
2017-12-12T10:30:04.066Z,924
2017-12-12T10:31:04.310Z,952
2017-12-12T10:32:04.044Z,1088
2017-12-12T10:33:04.004Z,1036
2017-12-12T10:34:03.986Z,964
2017-12-12T10:35:03.980Z,976
2017-12-12T10:36:03.964Z,1176
2017-12-12T10:37:04.223Z,1184
2017-12-12T10:38:03.926Z,1056
2017-12-12T10:39:03.937Z,1000
2017-12-12T10:40:03.881Z,1016
2017-12-12T10:41:03.597Z,1096
2017-12-12T10:42:04.125Z,1268
2017-12-12T10:43:04.111Z,1332
2017-12-12T10:44:03.873Z,1168
2017-12-12T10:45:03.799Z,1020
2017-12-12T10:46:03.528Z,900
2017-12-12T10:47:03.764Z,1140
2017-12-12T10:48:04.297Z,1108
2017-12-12T10:49:03.745Z,1152
2017-12-12T10:50:03.979Z,1392
2017-12-12T10:51:04.025Z,1344
2017-12-12T10:52:03.698Z,1384
2017-12-12T10:53:03.720Z,1444
2017-12-12T10:54:03.643Z,1076
2017-12-12T10:55:03.920Z,1076
2017-12-12T10:56:03.891Z,1136
2017-12-12T10:57:03.318Z,1192
2017-12-12T10:58:03.595Z,1096
2017-12-12T10:59:03.555Z,1108
2017-12-12T11:00:03.544Z,1368
2017-12-12T11:01:03.520Z,1808
2017-12-12T11:02:03.229Z,1860
2017-12-12T11:03:03.481Z,2180
2017-12-12T11:04:03.523Z,2036
2017-12-12T11:05:03.179Z,2144
2017-12-12T11:06:03.158Z,1972
2017-12-12T11:07:03.415Z,1780
2017-12-12T11:08:03.450Z,1620
2017-12-12T11:09:03.109Z,1672
2017-12-12T11:10:03.675Z,1464
2017-12-12T11:11:03.074Z,1376
2017-12-12T11:12:03.611Z,1908
2017-12-12T11:13:03.326Z,2628
2017-12-12T11:14:03.567Z,2800
2017-12-12T11:15:03.293Z,2140
2017-12-12T11:16:03.547Z,1876
2017-12-12T11:17:02.986Z,1420
2017-12-12T11:18:03.786Z,1216
2017-12-12T11:19:03.482Z,1376
2017-12-12T11:20:02.917Z,1244
2017-12-12T11:21:03.183Z,1452
2017-12-12T11:22:03.437Z,2168
2017-12-12T11:23:02.865Z,2964
2017-12-12T11:24:02.848Z,4556
2017-12-12T11:25:03.105Z,5340
2017-12-12T11:26:02.816Z,5024
2017-12-12T11:27:03.070Z,4596
2017-12-12T11:28:03.597Z,4576
2017-12-12T11:29:03.307Z,4644
2017-12-12T11:30:03.288Z,5412
2017-12-12T11:31:02.727Z,6404
2017-12-12T11:32:02.982Z,5348
2017-12-12T11:33:02.965Z,4376
2017-12-12T11:34:02.948Z,4188
2017-12-12T11:35:03.217Z,4084
2017-12-12T11:36:02.939Z,3988
2017-12-12T11:37:02.626Z,4348
2017-12-12T11:38:02.888Z,4716
2017-12-12T11:39:02.862Z,4880
2017-12-12T11:40:03.136Z,3916
2017-12-12T11:41:02.827Z,3660
2017-12-12T11:42:02.838Z,3904
2017-12-12T11:43:03.085Z,3212
2017-12-12T11:44:02.511Z,2592
2017-12-12T11:45:03.058Z,2668
2017-12-12T11:46:03.195Z,3544
2017-12-12T11:47:03.004Z,2988
2017-12-12T11:48:02.708Z,2228
2017-12-12T11:49:02.710Z,1800
2017-12-12T11:50:02.680Z,2080
2017-12-12T11:51:02.660Z,2384
2017-12-12T11:52:02.964Z,1448
2017-12-12T11:53:02.629Z,896
2017-12-12T11:54:02.341Z,656
2017-12-12T11:55:02.327Z,516
2017-12-12T11:56:02.848Z,532
2017-12-12T11:57:03.116Z,1548
2017-12-12T11:58:02.815Z,2016
2017-12-12T11:59:02.829Z,1940
2017-12-12T12:00:02.388Z,2116
2017-12-12T12:01:02.775Z,1824
2017-12-12T12:02:02.473Z,1920
2017-12-12T12:03:02.479Z,1320
2017-12-12T12:04:02.718Z,944
2017-12-12T12:05:02.424Z,1684
2017-12-12T12:06:02.404Z,1804
2017-12-12T12:07:02.391Z,1472
2017-12-12T12:08:02.372Z,1464
2017-12-12T12:09:02.654Z,1604
2017-12-12T12:10:02.609Z,1704
2017-12-12T12:11:02.321Z,1344
2017-12-12T12:12:02.304Z,1308
2017-12-12T12:13:02.559Z,1412
2017-12-12T12:14:01.997Z,1588
2017-12-12T12:15:02.255Z,1656
2017-12-12T12:16:02.801Z,1560
2017-12-12T12:17:01.967Z,1896
2017-12-12T12:18:02.245Z,1856
2017-12-12T12:19:02.461Z,1536
2017-12-12T12:20:02.179Z,1584
2017-12-12T12:21:02.150Z,1288
2017-12-12T12:22:02.131Z,1156
2017-12-12T12:23:02.388Z,1676
2017-12-12T12:24:02.106Z,1808
2017-12-12T12:25:02.115Z,1988
2017-12-12T12:26:02.072Z,2348
2017-12-12T12:27:02.043Z,2184
2017-12-12T12:28:01.755Z,1956
2017-12-12T12:29:01.742Z,2348
2017-12-12T12:30:01.723Z,3172
2017-12-12T12:31:02.250Z,3548
2017-12-12T12:32:01.959Z,3704
2017-12-12T12:33:01.671Z,3632
2017-12-12T12:34:01.650Z,3896
2017-12-12T12:35:01.922Z,4444
2017-12-12T12:36:02.177Z,4864
2017-12-12T12:37:01.882Z,5228
2017-12-12T12:38:02.189Z,5052
2017-12-12T12:39:01.844Z,5060
2017-12-12T12:40:01.826Z,4500
2017-12-12T12:41:01.803Z,4108
2017-12-12T12:42:01.515Z,4132
2017-12-12T12:43:01.500Z,3380
2017-12-12T12:44:01.778Z,3268
2017-12-12T12:45:02.300Z,2784
2017-12-12T12:46:01.743Z,2520
2017-12-12T12:47:01.972Z,2348
2017-12-12T12:48:01.973Z,2096
2017-12-12T12:49:01.666Z,1528
2017-12-12T12:50:01.670Z,1424
2017-12-12T12:51:01.382Z,1048
2017-12-12T12:52:01.618Z,1408
2017-12-12T12:53:01.600Z,2072
2017-12-12T12:54:01.861Z,2224
2017-12-12T12:55:01.570Z,2268
2017-12-12T12:56:02.099Z,2452
2017-12-12T12:57:01.546Z,2640
2017-12-12T12:58:01.244Z,2084
2017-12-12T12:59:01.523Z,1608
2017-12-12T13:00:01.478Z,2376
2017-12-12T13:01:01.463Z,2532
2017-12-12T13:02:02.038Z,2908
2017-12-12T13:03:01.435Z,3200
2017-12-12T13:04:01.424Z,3544
2017-12-12T13:05:01.393Z,3684
2017-12-12T13:06:01.418Z,3612
2017-12-12T13:07:01.906Z,3656
2017-12-12T13:08:01.343Z,3744
2017-12-12T13:09:01.058Z,3360
2017-12-12T13:10:01.317Z,3016
2017-12-12T13:11:01.293Z,2644
2017-12-12T13:12:01.293Z,2356
2017-12-12T13:13:00.988Z,2016
2017-12-12T13:14:01.244Z,1940
2017-12-12T13:15:01.229Z,1688
2017-12-12T13:16:01.209Z,1704
2017-12-12T13:17:00.919Z,2020
2017-12-12T13:18:00.904Z,2188
2017-12-12T13:19:00.893Z,1736
2017-12-12T13:20:00.871Z,1524
2017-12-12T13:21:00.870Z,1524
2017-12-12T13:22:01.121Z,1476
2017-12-12T13:23:01.358Z,1576
2017-12-12T13:24:01.366Z,1332
2017-12-12T13:25:01.342Z,1356
2017-12-12T13:26:00.782Z,1400
2017-12-12T13:27:00.749Z,1352
2017-12-12T13:28:01.024Z,1524
2017-12-12T13:29:00.984Z,1628
2017-12-12T13:30:00.973Z,1512
2017-12-12T13:31:01.503Z,1500
2017-12-12T13:32:01.206Z,1864
2017-12-12T13:33:00.928Z,2252
2017-12-12T13:34:00.917Z,2004
2017-12-12T13:35:00.618Z,1872
2017-12-12T13:36:00.590Z,2236
2017-12-12T13:37:00.847Z,2772
2017-12-12T13:38:00.829Z,2584
2017-12-12T13:39:00.544Z,2712
2017-12-12T13:40:00.793Z,2576
2017-12-12T13:41:00.796Z,2508
2017-12-12T13:42:01.309Z,2752
2017-12-12T13:43:00.756Z,2508
2017-12-12T13:44:01.012Z,2368
2017-12-12T13:45:01.255Z,1940
2017-12-12T13:46:00.701Z,2080
2017-12-12T13:47:00.824Z,2164
2017-12-12T13:48:00.386Z,2152
2017-12-12T13:49:00.638Z,1976
2017-12-12T13:50:00.627Z,1308
2017-12-12T13:51:00.337Z,964
2017-12-12T13:52:00.319Z,840
2017-12-12T13:53:00.573Z,856
2017-12-12T13:54:00.827Z,972
2017-12-12T13:55:00.538Z,996
2017-12-12T13:56:00.247Z,1096
2017-12-12T13:57:00.516Z,968
2017-12-12T13:58:00.496Z,904
2017-12-12T13:59:00.464Z,1192
2017-12-12T14:00:00.728Z,1016
2017-12-12T14:01:00.712Z,908
2017-12-12T14:02:00.687Z,928
2017-12-12T14:03:00.697Z,968
2017-12-12T14:04:00.385Z,1180
2017-12-12T14:05:00.367Z,1196
2017-12-12T14:06:00.676Z,1228